Pagrindinis puslapis
METAR-TAF:

METAR-TAF

Oro uostai :

Sveg, Švedija

platuma: 62-02-52N, ilguma: 014-25-22E, Aukštis: 359 m

Dabartinis oras

Ataskaita buvo paskelbta 17 minutes, ne 13:50 UTC
Vėjas 7 kt iš Vakarų
Temperatūra 4°C
Drėgmė 70%
Slėgis 1016 hPa
Matomumas 10 km arba daugiau

METAR: ESND 231350Z AUTO 27007KT 9999 FEW030/// 04/M01 Q1016

Laikas: 16:07 (14:07 UTC)


TAF: trūkstamas

Orai ataskaitas ir orų prognozės (METAR, TAF).

turimą stotys yra geltonos ir raudonos taškus žemėlapyje.

Perkelti pele per norėdami pamatyti stoties vardą.

Tada spustelėkite, norėdami matyti oro stebėjimo ir prognozės.

Norėdami pakeisti žemėlapį: spustelėkite ant žalios mygtukų su juodo kryžiaus žemyn,; žalią mygtuką su brūkšneliu, jei norite nutolinti; arba žalių rodyklių gretimoms žemėlapius.


METAR-TAF: